createdAt,value
2023-01-04T00:02:20.763Z,7.14
2023-01-04T00:05:05.281Z,7.19
2023-01-04T00:07:41.011Z,6.99
2023-01-04T00:10:25.962Z,7.16
2023-01-04T00:16:14.803Z,7.08
2023-01-04T00:18:48.025Z,7.10
2023-01-04T00:27:06.112Z,7.01
2023-01-04T00:30:15.032Z,6.85
2023-01-04T00:32:54.060Z,7.07
2023-01-04T00:35:44.839Z,7.04
2023-01-04T00:38:19.283Z,6.82
2023-01-04T00:40:58.701Z,6.88
2023-01-04T00:43:43.148Z,7.03
2023-01-04T00:46:30.205Z,6.94
2023-01-04T00:49:02.847Z,6.92
2023-01-04T00:51:33.795Z,6.91
2023-01-04T00:54:15.607Z,6.91
2023-01-04T00:57:05.401Z,6.96
2023-01-04T00:59:38.899Z,6.88
2023-01-04T01:02:11.070Z,6.95
2023-01-04T01:04:40.868Z,6.82
2023-01-04T01:07:13.556Z,6.93
2023-01-04T01:09:44.897Z,6.81
2023-01-04T01:12:19.113Z,6.97
2023-01-04T01:14:47.900Z,6.89
2023-01-04T01:17:32.173Z,6.93
2023-01-04T01:20:20.007Z,6.93
2023-01-04T01:23:05.813Z,7.06
2023-01-04T01:25:44.300Z,6.89
2023-01-04T01:28:23.735Z,6.94
2023-01-04T01:30:56.132Z,6.95
2023-01-04T01:33:40.698Z,6.82
2023-01-04T01:36:13.654Z,6.89
2023-01-04T01:38:45.777Z,6.76
2023-01-04T01:41:31.633Z,6.94
2023-01-04T01:44:10.620Z,7.05
2023-01-04T01:46:50.637Z,7.02
2023-01-04T01:49:47.034Z,7.08
2023-01-04T01:52:22.764Z,7.12
2023-01-04T01:55:07.971Z,6.97
2023-01-04T01:57:40.935Z,7.13
2023-01-04T02:00:29.127Z,6.98
2023-01-04T02:03:26.450Z,7.11
2023-01-04T02:06:14.101Z,7.07
2023-01-04T02:09:00.118Z,7.14
2023-01-04T02:11:33.869Z,7.29
2023-01-04T02:14:32.578Z,7.22
2023-01-04T02:17:20.006Z,7.16
2023-01-04T02:20:20.457Z,7.18
2023-01-04T02:26:55.768Z,7.28
2023-01-04T02:30:13.325Z,7.35
2023-01-04T02:33:00.953Z,7.37
2023-01-04T02:35:49.409Z,7.41
2023-01-04T02:38:33.686Z,7.48
2023-01-04T02:41:20.203Z,7.42
2023-01-04T02:44:18.564Z,7.40
2023-01-04T02:46:53.341Z,7.37
2023-01-04T02:49:46.279Z,7.47
2023-01-04T02:52:18.330Z,7.54
2023-01-04T02:54:55.530Z,7.53
2023-01-04T02:57:42.342Z,7.49
2023-01-04T03:00:30.033Z,7.61
2023-01-04T03:03:36.272Z,7.57
2023-01-04T03:06:20.001Z,7.50
2023-01-04T03:09:00.811Z,7.47
2023-01-04T03:11:53.037Z,7.48
2023-01-04T03:14:32.555Z,7.52
2023-01-04T03:17:03.324Z,7.62
2023-01-04T03:19:55.241Z,7.70
2023-01-04T03:22:56.312Z,7.91
2023-01-04T03:25:46.752Z,7.79
2023-01-04T03:28:35.729Z,7.84
2023-01-04T03:31:29.566Z,7.96
2023-01-04T03:34:16.059Z,8.05
2023-01-04T03:36:54.686Z,7.99
2023-01-04T03:39:58.197Z,8.19
2023-01-04T03:42:50.169Z,8.12
2023-01-04T03:45:41.786Z,8.17
2023-01-04T03:48:30.646Z,7.98
2023-01-04T03:51:06.620Z,8.09
2023-01-04T03:53:39.400Z,7.95
2023-01-04T03:56:12.042Z,8.03
2023-01-04T03:58:40.347Z,8.25
2023-01-04T04:01:09.021Z,8.17
2023-01-04T04:03:54.745Z,7.96
2023-01-04T04:06:40.538Z,7.93
2023-01-04T04:09:08.550Z,8.09
2023-01-04T04:11:37.902Z,8.03
2023-01-04T04:14:05.946Z,8.01
2023-01-04T04:16:34.299Z,8.28
2023-01-04T04:19:08.239Z,8.18
2023-01-04T04:21:37.887Z,7.92
2023-01-04T04:24:06.964Z,8.08
2023-01-04T04:26:35.182Z,8.03
2023-01-04T04:29:05.075Z,8.01
2023-01-04T04:31:35.739Z,8.12
2023-01-04T04:34:06.505Z,8.03
2023-01-04T04:36:35.870Z,7.88
2023-01-04T04:39:05.658Z,7.94
2023-01-04T04:41:39.503Z,7.84
2023-01-04T04:44:12.661Z,7.94
2023-01-04T04:46:41.067Z,7.85
2023-01-04T04:49:10.469Z,8.06
2023-01-04T04:51:40.236Z,7.95
2023-01-04T04:54:09.651Z,8.04
2023-01-04T04:56:39.103Z,8.05
2023-01-04T04:59:08.984Z,8.16
2023-01-04T05:01:37.288Z,8.04
2023-01-04T05:04:05.868Z,8.18
2023-01-04T05:06:34.383Z,8.24
2023-01-04T05:09:03.144Z,8.36
2023-01-04T05:11:48.846Z,8.43
2023-01-04T05:14:18.886Z,8.23
2023-01-04T05:16:47.027Z,8.24
2023-01-04T05:19:15.057Z,8.30
2023-01-04T05:21:42.869Z,8.25
2023-01-04T05:24:13.140Z,8.23
2023-01-04T05:26:42.070Z,8.28
2023-01-04T05:29:30.529Z,8.41
2023-01-04T05:32:04.459Z,8.46
2023-01-04T05:34:34.660Z,8.36
2023-01-04T05:37:04.390Z,8.37
2023-01-04T05:39:34.787Z,8.33
2023-01-04T05:42:23.605Z,8.15
2023-01-04T05:44:57.915Z,8.20
2023-01-04T05:47:40.197Z,8.18
2023-01-04T05:50:18.906Z,8.13
2023-01-04T05:52:49.523Z,8.22
2023-01-04T05:55:27.085Z,8.26
2023-01-04T05:57:58.082Z,8.20
2023-01-04T06:00:27.007Z,8.24
2023-01-04T06:02:57.995Z,8.23
2023-01-04T06:05:30.628Z,8.30
2023-01-04T06:08:03.623Z,8.36
2023-01-04T06:10:51.018Z,8.44
2023-01-04T06:13:35.527Z,8.41
2023-01-04T06:20:14.758Z,8.48
2023-01-04T06:23:02.289Z,8.47
2023-01-04T06:31:47.024Z,8.70
2023-01-04T06:34:34.346Z,8.70
2023-01-04T06:47:02.517Z,8.59
2023-01-04T06:49:32.233Z,8.56
2023-01-04T06:52:02.291Z,8.51
2023-01-04T06:54:33.170Z,8.57
2023-01-04T06:57:02.411Z,8.44
2023-01-04T06:59:33.830Z,8.59
2023-01-04T07:02:07.124Z,8.54
2023-01-04T07:04:35.441Z,8.52
2023-01-04T07:07:06.184Z,8.52
2023-01-04T07:09:34.250Z,8.45
2023-01-04T07:12:02.467Z,8.48
2023-01-04T07:14:32.020Z,8.61
2023-01-04T07:17:04.980Z,8.48
2023-01-04T07:19:35.355Z,8.55
2023-01-04T07:22:04.317Z,8.47
2023-01-04T07:24:36.590Z,8.53
2023-01-04T07:27:05.712Z,8.54
2023-01-04T07:29:35.269Z,8.69
2023-01-04T07:32:10.226Z,8.64
2023-01-04T07:34:44.936Z,8.76
2023-01-04T07:37:16.235Z,8.90
2023-01-04T07:39:45.428Z,8.80
2023-01-04T07:42:22.778Z,8.79
2023-01-04T07:45:15.659Z,8.95
2023-01-04T07:47:54.601Z,8.98
2023-01-04T07:50:25.138Z,8.89
2023-01-04T07:52:55.716Z,8.93
2023-01-04T07:55:35.808Z,8.93
2023-01-04T08:01:25.314Z,9.00
2023-01-04T08:03:55.739Z,9.03
2023-01-04T08:06:42.611Z,9.06
2023-01-04T08:09:26.870Z,9.10
2023-01-04T08:11:59.189Z,9.07
2023-01-04T08:14:31.205Z,9.17
2023-01-04T08:16:59.931Z,9.11
2023-01-04T08:19:29.067Z,9.09
2023-01-04T08:22:04.658Z,9.13
2023-01-04T08:24:34.396Z,9.14
2023-01-04T08:27:10.247Z,9.17
2023-01-04T08:32:59.395Z,9.25
2023-01-04T08:35:28.839Z,9.13
2023-01-04T08:38:47.237Z,9.18
2023-01-04T08:41:16.876Z,9.28
2023-01-04T08:47:18.885Z,9.14
2023-01-04T08:50:09.976Z,9.28
2023-01-04T08:52:57.914Z,9.20
2023-01-04T08:55:47.151Z,9.22
2023-01-04T09:02:04.841Z,9.09
2023-01-04T09:04:47.505Z,8.97
2023-01-04T09:07:19.103Z,8.97
2023-01-04T09:31:42.417Z,9.29
2023-01-04T09:37:58.428Z,9.31
2023-01-04T09:40:45.229Z,9.47
2023-01-04T09:43:39.347Z,9.55
2023-01-04T09:46:24.835Z,9.57
2023-01-04T09:49:10.756Z,9.54
2023-01-04T09:54:49.103Z,9.62
2023-01-04T09:57:43.043Z,9.63
2023-01-04T10:03:39.877Z,9.68
2023-01-04T11:36:52.431Z,10.70
2023-01-04T11:51:38.897Z,10.76
2023-01-04T15:00:20.252Z,11.61
2023-01-04T15:43:36.499Z,12.26
2023-01-04T16:02:39.344Z,12.31
2023-01-04T16:05:20.582Z,12.36
2023-01-04T16:08:11.454Z,12.29
2023-01-04T16:10:44.426Z,12.26
2023-01-04T16:13:19.825Z,12.35
2023-01-04T16:15:55.864Z,12.40
2023-01-04T16:18:33.718Z,12.37
2023-01-04T16:21:07.830Z,12.35
2023-01-04T16:23:50.111Z,12.40
2023-01-04T16:29:42.513Z,12.35
2023-01-04T16:32:54.470Z,12.39
2023-01-04T16:35:37.403Z,12.42
2023-01-04T16:38:37.053Z,12.34
2023-01-04T16:41:19.590Z,12.45
2023-01-04T16:47:03.330Z,12.51
2023-01-04T17:20:37.891Z,12.37
2023-01-04T18:16:24.728Z,12.61
2023-01-04T18:22:01.515Z,12.29
2023-01-04T18:40:30.261Z,12.19
2023-01-04T18:43:53.530Z,12.22
2023-01-04T18:55:46.996Z,12.25
2023-01-04T19:11:59.965Z,12.33
2023-01-04T22:30:10.319Z,10.02
